WetterOnline ( https://www.wetteronline.ch )

Wetter aktuell Bielefeld

Aktuelles Wetter: Bad Salzuflen (139m)

6-stündlich | Neueste Meldungen
Ortszeit Temperatur Wetter
Di, 18.02. 19:00 6.5° C bewölkt
Di, 18.02. 13:00 7.2° C bedeckt
Di, 18.02. 7:00 4.1° C bewölkt
Di, 18.02. 1:00 6.1° C bewölkt
Mo, 17.02. 19:00 5.8° C fast wolkenlos
Mo, 17.02. 13:00 9.7° C leicht bewölkt
Mo, 17.02. 7:00 7.3° C wolkig
Mo, 17.02. 1:00 7.2° C leichter Regen
Ortszeit Temperatur Wetter
Di, 18.02. 19:30 6.1° C wolkig
Di, 18.02. 19:20 6.1° C wolkig
Di, 18.02. 19:10 6.1° C wolkig
Di, 18.02. 19:00 6.5° C bewölkt
Di, 18.02. 18:50 6.5° C bewölkt
Di, 18.02. 18:40 6.6° C wolkig
Di, 18.02. 18:30 6.8° C bewölkt
Di, 18.02. 18:00 6.9° C bewölkt
Di, 18.02. 17:30 7.0° C bewölkt
Di, 18.02. 17:00 7.1° C bedeckt
Di, 18.02. 16:30 7.0° C bedeckt
Ortszeit Relative Feuchte Sichtweite
Di, 18.02. 19:00 69% 40 km
Di, 18.02. 13:00 59% 40 km
Di, 18.02. 7:00 83% 55 km
Di, 18.02. 1:00 83% 35 km
Mo, 17.02. 19:00 84% 50 km
Mo, 17.02. 13:00 59% 35 km
Mo, 17.02. 7:00 63% 40 km
Mo, 17.02. 1:00 86% 35 km
Ortszeit Relative Feuchte Sichtweite
Di, 18.02. 19:30 72% 40 km
Di, 18.02. 19:20 72% -
Di, 18.02. 19:10 72% -
Di, 18.02. 19:00 69% 40 km
Di, 18.02. 18:50 69% -
Di, 18.02. 18:40 69% -
Di, 18.02. 18:30 67% 50 km
Di, 18.02. 18:00 68% 45 km
Di, 18.02. 17:30 68% 40 km
Di, 18.02. 17:00 68% 40 km
Di, 18.02. 16:30 68% 40 km
Ortszeit Niederschlagsmenge Niederschlagsart
Di, 18.02. 19:00 0.1 l/m2 in 12 Std. Regen
Di, 18.02. 13:00 0.0 l/m2 in 6 Std. -
Di, 18.02. 7:00 4 l/m2 in 12 Std. Schnee, Regen
Di, 18.02. 1:00 0.3 l/m2 in 6 Std. Regen
Mo, 17.02. 19:00 0.5 l/m2 in 12 Std. Regen
Mo, 17.02. 13:00 0.0 l/m2 in 6 Std. -
Mo, 17.02. 7:00 6 l/m2 in 12 Std. Regen
Mo, 17.02. 1:00 6 l/m2 in 6 Std. Regen
Ortszeit Niederschlagsmenge Niederschlagsart
Di, 18.02. 19:30 0.0 l/m2 in 1 Std. -
Di, 18.02. 19:20 keine Meldung -
Di, 18.02. 19:10 keine Meldung -
Di, 18.02. 19:00 0.0 l/m2 in 1 Std. Regen
Di, 18.02. 18:50 keine Meldung -
Di, 18.02. 18:40 keine Meldung -
Di, 18.02. 18:30 0.0 l/m2 in 1 Std. -
Di, 18.02. 18:00 0.1 l/m2 in 1 Std. Regen
Di, 18.02. 17:30 0.1 l/m2 in 1 Std. Schneeregen
Di, 18.02. 17:00 0.1 l/m2 in 1 Std. Regen
Di, 18.02. 16:30 0.1 l/m2 in 1 Std. Schneeregen
Ortszeit Stärke Spitze Richtung
km/h Bft. km/h Grad Sektor
Di, 18.02. 19:00 20 4 54 - -
Di, 18.02. 13:00 32 5 54 - -
Di, 18.02. 7:00 15 3 50 - -
Di, 18.02. 1:00 14 3 40 - -
Mo, 17.02. 19:00 14 3 61 - -
Mo, 17.02. 13:00 24 4 48 - -
Mo, 17.02. 7:00 22 4 58 - -
Mo, 17.02. 1:00 28 4 85 - -
Ortszeit Stärke Spitze Richtung
km/h Bft. km/h Grad Sektor
Di, 18.02. 19:30 20 4 33 - -
Di, 18.02. 19:20 20 4 - - -
Di, 18.02. 19:10 18 3 - - -
Di, 18.02. 19:00 20 4 44 - -
Di, 18.02. 18:50 20 4 - - -
Di, 18.02. 18:40 19 3 - - -
Di, 18.02. 18:30 22 4 43 - -
Di, 18.02. 18:00 24 4 44 - -
Di, 18.02. 17:30 24 4 43 - -
Di, 18.02. 17:00 20 4 50 - -
Di, 18.02. 16:30 24 4 50 - -
Ortszeit Untergrenze Bedeckung Gattung
total tief tief mittel hoch
Di, 18.02. 19:00 990 m 7/8 7/8 - - -
Di, 18.02. 13:00 1020 m 8/8 8/8 - - -
Di, 18.02. 7:00 780 m 7/8 6/8 - - -
Di, 18.02. 1:00 480 m 7/8 7/8 - - -
Mo, 17.02. 19:00 750 m 1/8 1/8 - - -
Mo, 17.02. 13:00 1050 m 3/8 3/8 - - -
Mo, 17.02. 7:00 1080 m 8/8 2/8 - - -
Mo, 17.02. 1:00 570 m 8/8 8/8 - - -
Ortszeit Bedeckungsgrad in Achtel und Wolkenuntergrenze
Di, 18.02. 19:30 3(1050m) 5(2700m)
Di, 18.02. 19:20 3(1050m) 5(2700m)
Di, 18.02. 19:10 4(1050m) 6(2700m)
Di, 18.02. 19:00 5(990m) 7(1230m) 7(8100m)
Di, 18.02. 18:50 5(990m) 7(1230m) 7(8100m)
Di, 18.02. 18:40 4(990m) 7(3300m) 7(8100m)
Di, 18.02. 18:30 2(900m) 6(1170m) 7(3300m)
Di, 18.02. 18:00 2(780m) 7(1350m) 7(1500m)
Di, 18.02. 17:30 6(870m) 7(1080m) 7(1380m)
Di, 18.02. 17:00 5(840m) 8(1500m) 8(5400m)
Di, 18.02. 16:30 3(870m) 7(1080m) 8(1800m)
Ortszeit Luftdruck NN (hPa) Tendenz (hPa in 3 Std.)
Di, 18.02. 19:00 1019 - 0,3
Di, 18.02. 13:00 1020 + 0,1
Di, 18.02. 7:00 1018 + 1,9
Di, 18.02. 1:00 1015 + 1,1
Mo, 17.02. 19:00 1013 + 1,9
Mo, 17.02. 13:00 1012 - 0,7
Mo, 17.02. 7:00 1012 + 3,0
Mo, 17.02. 1:00 1007 + 2,7
Ortszeit Luftdruck NN (hPa) Tendenz (hPa in 3 Std.)
Di, 18.02. 19:30 1019 - 0,6
Di, 18.02. 19:20 1019 keine Meldung
Di, 18.02. 19:10 1019 keine Meldung
Di, 18.02. 19:00 1019 - 0,3
Di, 18.02. 18:50 1019 keine Meldung
Di, 18.02. 18:40 1019 keine Meldung
Di, 18.02. 18:30 1019 - 0,3
Di, 18.02. 18:00 1019 - 0,8
Di, 18.02. 17:30 1019 - 0,7
Di, 18.02. 17:00 1019 - 0,7
Di, 18.02. 16:30 1019 - 0,5
Ortszeit Schneehöhe (cm)
Di, 18.02. 19:00 0
Di, 18.02. 13:00 0
Di, 18.02. 7:00 0
Di, 18.02. 1:00 0
Mo, 17.02. 19:00 0
Mo, 17.02. 13:00 0
Mo, 17.02. 7:00 0
Mo, 17.02. 1:00 0
Ortszeit Schneehöhe (cm)
Di, 18.02. 19:30 0
Di, 18.02. 19:20 0
Di, 18.02. 19:10 0
Di, 18.02. 19:00 0
Di, 18.02. 18:50 0
Di, 18.02. 18:40 0
Di, 18.02. 18:30 0
Di, 18.02. 18:00 0
Di, 18.02. 17:30 0
Di, 18.02. 17:00 0
Di, 18.02. 16:30 0
Link zu dieser Seite / Seite empfehlen

Das Wetter in ...